sensor_id;sensor_type;location;lat;lon;timestamp;pressure;altitude;pressure_sealevel;temperature;humidity
66887;BME280;67239;51.680;5.976;2024-03-02T00:01:37;99749.28;;;7.05;84.98
66887;BME280;67239;51.680;5.976;2024-03-02T00:04:05;99746.81;;;7.00;85.23
66887;BME280;67239;51.680;5.976;2024-03-02T00:06:34;99747.69;;;7.01;85.21
66887;BME280;67239;51.680;5.976;2024-03-02T00:09:02;99749.41;;;7.02;85.41
66887;BME280;67239;51.680;5.976;2024-03-02T00:11:29;99744.16;;;7.02;85.55
66887;BME280;67239;51.680;5.976;2024-03-02T00:13:57;99742.28;;;7.05;85.70
66887;BME280;67239;51.680;5.976;2024-03-02T00:16:30;99745.69;;;7.07;85.70
66887;BME280;67239;51.680;5.976;2024-03-02T00:19:05;99744.00;;;7.06;85.69
66887;BME280;67239;51.680;5.976;2024-03-02T00:21:33;99751.78;;;7.08;85.65
66887;BME280;67239;51.680;5.976;2024-03-02T00:24:08;99748.22;;;7.10;85.59
66887;BME280;67239;51.680;5.976;2024-03-02T00:27:04;99747.41;;;7.08;85.70
66887;BME280;67239;51.680;5.976;2024-03-02T00:29:34;99746.56;;;7.08;85.92
66887;BME280;67239;51.680;5.976;2024-03-02T00:32:02;99743.03;;;7.09;85.88
66887;BME280;67239;51.680;5.976;2024-03-02T00:34:29;99740.41;;;7.09;85.98
66887;BME280;67239;51.680;5.976;2024-03-02T00:36:57;99748.19;;;7.12;86.04
66887;BME280;67239;51.680;5.976;2024-03-02T00:39:26;99740.09;;;7.18;86.04
66887;BME280;67239;51.680;5.976;2024-03-02T00:41:53;99746.84;;;7.25;86.09
66887;BME280;67239;51.680;5.976;2024-03-02T00:44:23;99751.06;;;7.29;86.02
66887;BME280;67239;51.680;5.976;2024-03-02T00:46:53;99752.56;;;7.37;85.90
66887;BME280;67239;51.680;5.976;2024-03-02T00:49:23;99749.78;;;7.41;85.71
66887;BME280;67239;51.680;5.976;2024-03-02T00:51:52;99753.97;;;7.47;85.30
66887;BME280;67239;51.680;5.976;2024-03-02T00:54:21;99754.56;;;7.55;85.28
66887;BME280;67239;51.680;5.976;2024-03-02T00:56:52;99763.06;;;7.62;85.09
66887;BME280;67239;51.680;5.976;2024-03-02T00:59:22;99762.00;;;7.68;85.01
66887;BME280;67239;51.680;5.976;2024-03-02T01:01:50;99765.31;;;7.73;84.91
66887;BME280;67239;51.680;5.976;2024-03-02T01:04:17;99776.44;;;7.80;84.44
66887;BME280;67239;51.680;5.976;2024-03-02T01:06:44;99780.59;;;7.85;84.74
66887;BME280;67239;51.680;5.976;2024-03-02T01:09:12;99779.53;;;7.91;84.37
66887;BME280;67239;51.680;5.976;2024-03-02T01:11:39;99793.22;;;7.99;84.30
66887;BME280;67239;51.680;5.976;2024-03-02T01:14:07;99807.13;;;8.03;84.31
66887;BME280;67239;51.680;5.976;2024-03-02T01:16:34;99826.28;;;8.05;84.55
66887;BME280;67239;51.680;5.976;2024-03-02T01:19:01;99851.50;;;8.09;84.76
66887;BME280;67239;51.680;5.976;2024-03-02T01:21:28;99860.19;;;8.11;84.60
66887;BME280;67239;51.680;5.976;2024-03-02T01:23:55;99859.22;;;8.14;85.05
66887;BME280;67239;51.680;5.976;2024-03-02T01:26:22;99853.00;;;8.16;85.32
66887;BME280;67239;51.680;5.976;2024-03-02T01:28:49;99847.75;;;8.16;85.54
66887;BME280;67239;51.680;5.976;2024-03-02T01:31:16;99852.09;;;8.17;86.27
66887;BME280;67239;51.680;5.976;2024-03-02T01:33:43;99863.41;;;8.19;86.58
66887;BME280;67239;51.680;5.976;2024-03-02T01:36:10;99860.78;;;8.19;86.72
66887;BME280;67239;51.680;5.976;2024-03-02T01:38:37;99858.22;;;8.18;86.83
66887;BME280;67239;51.680;5.976;2024-03-02T01:41:04;99858.25;;;8.16;86.96
66887;BME280;67239;51.680;5.976;2024-03-02T01:43:31;99857.41;;;8.16;87.02
66887;BME280;67239;51.680;5.976;2024-03-02T01:45:58;99854.78;;;8.16;87.27
66887;BME280;67239;51.680;5.976;2024-03-02T01:48:26;99853.06;;;8.15;87.10
66887;BME280;67239;51.680;5.976;2024-03-02T01:50:53;99851.34;;;8.14;86.92
66887;BME280;67239;51.680;5.976;2024-03-02T01:53:20;99848.81;;;8.11;86.96
66887;BME280;67239;51.680;5.976;2024-03-02T01:55:47;99847.91;;;8.12;86.98
66887;BME280;67239;51.680;5.976;2024-03-02T01:58:14;99838.31;;;8.11;86.95
66887;BME280;67239;51.680;5.976;2024-03-02T02:00:41;99847.97;;;8.10;86.95
66887;BME280;67239;51.680;5.976;2024-03-02T02:03:08;99841.84;;;8.09;86.97
66887;BME280;67239;51.680;5.976;2024-03-02T02:05:36;99848.81;;;8.11;86.87
66887;BME280;67239;51.680;5.976;2024-03-02T02:08:03;99846.25;;;8.09;86.80
66887;BME280;67239;51.680;5.976;2024-03-02T02:10:30;99848.03;;;8.08;86.50
66887;BME280;67239;51.680;5.976;2024-03-02T02:12:58;99836.59;;;8.09;86.70
66887;BME280;67239;51.680;5.976;2024-03-02T02:17:57;99820.25;;;8.03;86.98
66887;BME280;67239;51.680;5.976;2024-03-02T02:20:26;99823.78;;;8.02;86.74
66887;BME280;67239;51.680;5.976;2024-03-02T02:23:03;99818.56;;;8.00;86.76
66887;BME280;67239;51.680;5.976;2024-03-02T02:25:36;99823.03;;;7.98;86.72
66887;BME280;67239;51.680;5.976;2024-03-02T02:28:03;99823.06;;;7.97;86.95
66887;BME280;67239;51.680;5.976;2024-03-02T02:30:31;99831.81;;;7.97;87.06
66887;BME280;67239;51.680;5.976;2024-03-02T02:32:59;99826.72;;;7.92;87.02
66887;BME280;67239;51.680;5.976;2024-03-02T02:35:26;99820.78;;;7.87;87.02
66887;BME280;67239;51.680;5.976;2024-03-02T02:37:55;99826.03;;;7.87;87.01
66887;BME280;67239;51.680;5.976;2024-03-02T02:40:23;99831.34;;;7.86;87.08
66887;BME280;67239;51.680;5.976;2024-03-02T02:42:50;99827.97;;;7.82;87.11
66887;BME280;67239;51.680;5.976;2024-03-02T02:45:21;99834.13;;;7.81;87.54
66887;BME280;67239;51.680;5.976;2024-03-02T02:47:49;99829.81;;;7.78;87.66
66887;BME280;67239;51.680;5.976;2024-03-02T02:50:16;99823.78;;;7.76;87.61
66887;BME280;67239;51.680;5.976;2024-03-02T02:52:44;99818.56;;;7.75;87.79
66887;BME280;67239;51.680;5.976;2024-03-02T02:55:12;99809.13;;;7.71;87.89
66887;BME280;67239;51.680;5.976;2024-03-02T02:57:41;99809.16;;;7.69;88.06
66887;BME280;67239;51.680;5.976;2024-03-02T03:00:12;99819.72;;;7.68;88.48
66887;BME280;67239;51.680;5.976;2024-03-02T03:02:45;99809.31;;;7.65;88.52
66887;BME280;67239;51.680;5.976;2024-03-02T03:05:15;99809.38;;;7.63;88.53
66887;BME280;67239;51.680;5.976;2024-03-02T03:07:42;99817.31;;;7.61;88.63
66887;BME280;67239;51.680;5.976;2024-03-02T03:10:11;99816.44;;;7.61;88.76
66887;BME280;67239;51.680;5.976;2024-03-02T03:12:38;99825.34;;;7.57;88.65
66887;BME280;67239;51.680;5.976;2024-03-02T03:15:08;99821.94;;;7.53;88.54
66887;BME280;67239;51.680;5.976;2024-03-02T03:17:39;99824.69;;;7.50;88.66
66887;BME280;67239;51.680;5.976;2024-03-02T03:20:07;99828.16;;;7.51;88.86
66887;BME280;67239;51.680;5.976;2024-03-02T03:22:38;99830.84;;;7.49;88.93
66887;BME280;67239;51.680;5.976;2024-03-02T03:25:06;99829.06;;;7.50;88.82
66887;BME280;67239;51.680;5.976;2024-03-02T03:27:35;99839.53;;;7.50;89.11
66887;BME280;67239;51.680;5.976;2024-03-02T03:30:03;99830.78;;;7.51;89.09
66887;BME280;67239;51.680;5.976;2024-03-02T03:32:30;99833.47;;;7.49;89.25
66887;BME280;67239;51.680;5.976;2024-03-02T03:34:57;99832.63;;;7.47;89.21
66887;BME280;67239;51.680;5.976;2024-03-02T03:37:24;99848.44;;;7.45;89.47
66887;BME280;67239;51.680;5.976;2024-03-02T03:39:53;99852.88;;;7.43;89.47
66887;BME280;67239;51.680;5.976;2024-03-02T03:42:20;99845.91;;;7.42;89.79
66887;BME280;67239;51.680;5.976;2024-03-02T03:44:48;99854.75;;;7.40;89.98
66887;BME280;67239;51.680;5.976;2024-03-02T03:47:15;99847.84;;;7.37;90.25
66887;BME280;67239;51.680;5.976;2024-03-02T03:49:42;99848.75;;;7.36;90.66
66887;BME280;67239;51.680;5.976;2024-03-02T03:52:09;99855.81;;;7.34;90.89
66887;BME280;67239;51.680;5.976;2024-03-02T03:54:36;99848.91;;;7.32;91.55
66887;BME280;67239;51.680;5.976;2024-03-02T03:57:05;99846.38;;;7.28;91.91
66887;BME280;67239;51.680;5.976;2024-03-02T03:59:32;99862.19;;;7.25;91.98
66887;BME280;67239;51.680;5.976;2024-03-02T04:01:59;99870.16;;;7.22;92.10
66887;BME280;67239;51.680;5.976;2024-03-02T04:04:26;99875.44;;;7.21;92.28
66887;BME280;67239;51.680;5.976;2024-03-02T04:06:54;99868.47;;;7.20;92.36
66887;BME280;67239;51.680;5.976;2024-03-02T04:09:21;99862.47;;;7.16;92.34
66887;BME280;67239;51.680;5.976;2024-03-02T04:11:48;99865.97;;;7.17;92.48
66887;BME280;67239;51.680;5.976;2024-03-02T04:14:15;99846.69;;;7.18;92.40
66887;BME280;67239;51.680;5.976;2024-03-02T04:16:42;99848.53;;;7.15;92.54
66887;BME280;67239;51.680;5.976;2024-03-02T04:19:09;99848.56;;;7.14;92.51
66887;BME280;67239;51.680;5.976;2024-03-02T04:21:37;99846.75;;;7.16;92.60
66887;BME280;67239;51.680;5.976;2024-03-02T04:24:04;99848.53;;;7.15;92.22
66887;BME280;67239;51.680;5.976;2024-03-02T04:26:31;99853.81;;;7.14;92.42
66887;BME280;67239;51.680;5.976;2024-03-02T04:28:58;99863.44;;;7.13;92.27
66887;BME280;67239;51.680;5.976;2024-03-02T04:31:25;99848.63;;;7.12;92.20
66887;BME280;67239;51.680;5.976;2024-03-02T04:33:52;99849.47;;;7.13;92.23
66887;BME280;67239;51.680;5.976;2024-03-02T04:36:20;99860.88;;;7.12;92.26
66887;BME280;67239;51.680;5.976;2024-03-02T04:38:48;99862.53;;;7.14;91.98
66887;BME280;67239;51.680;5.976;2024-03-02T04:41:15;99871.25;;;7.15;92.01
66887;BME280;67239;51.680;5.976;2024-03-02T04:43:42;99869.50;;;7.15;91.85
66887;BME280;67239;51.680;5.976;2024-03-02T04:46:09;99865.19;;;7.13;91.67
66887;BME280;67239;51.680;5.976;2024-03-02T04:48:37;99860.97;;;7.09;91.38
66887;BME280;67239;51.680;5.976;2024-03-02T04:51:05;99861.97;;;7.05;91.33
66887;BME280;67239;51.680;5.976;2024-03-02T04:53:32;99876.03;;;7.02;91.23
66887;BME280;67239;51.680;5.976;2024-03-02T04:55:59;99877.00;;;6.99;91.53
66887;BME280;67239;51.680;5.976;2024-03-02T04:58:44;99881.41;;;6.97;91.33
66887;BME280;67239;51.680;5.976;2024-03-02T05:01:12;99886.75;;;6.94;91.17
66887;BME280;67239;51.680;5.976;2024-03-02T05:03:39;99876.41;;;6.90;91.25
66887;BME280;67239;51.680;5.976;2024-03-02T05:06:06;99878.25;;;6.86;91.30
66887;BME280;67239;51.680;5.976;2024-03-02T05:08:33;99881.00;;;6.81;91.42
66887;BME280;67239;51.680;5.976;2024-03-02T05:11:00;99881.97;;;6.79;91.62
66887;BME280;67239;51.680;5.976;2024-03-02T05:13:47;99889.00;;;6.77;91.92
66887;BME280;67239;51.680;5.976;2024-03-02T05:16:14;99889.06;;;6.75;91.76
66887;BME280;67239;51.680;5.976;2024-03-02T05:18:41;99883.84;;;6.75;91.84
66887;BME280;67239;51.680;5.976;2024-03-02T05:21:08;99890.88;;;6.73;91.77
66887;BME280;67239;51.680;5.976;2024-03-02T05:23:36;99884.81;;;6.71;91.81
66887;BME280;67239;51.680;5.976;2024-03-02T05:26:03;99880.47;;;6.70;92.02
66887;BME280;67239;51.680;5.976;2024-03-02T05:28:30;99881.38;;;6.69;91.96
66887;BME280;67239;51.680;5.976;2024-03-02T05:30:57;99887.50;;;6.70;92.03
66887;BME280;67239;51.680;5.976;2024-03-02T05:33:25;99884.88;;;6.70;92.21
66887;BME280;67239;51.680;5.976;2024-03-02T05:35:52;99887.50;;;6.70;92.18
66887;BME280;67239;51.680;5.976;2024-03-02T05:38:20;99883.97;;;6.71;92.15
66887;BME280;67239;51.680;5.976;2024-03-02T05:40:48;99888.25;;;6.73;92.06
66887;BME280;67239;51.680;5.976;2024-03-02T05:43:15;99889.06;;;6.75;92.03
66887;BME280;67239;51.680;5.976;2024-03-02T05:45:42;99891.72;;;6.74;92.08
66887;BME280;67239;51.680;5.976;2024-03-02T05:48:09;99889.09;;;6.74;91.99
66887;BME280;67239;51.680;5.976;2024-03-02T05:50:37;99899.56;;;6.74;92.00
66887;BME280;67239;51.680;5.976;2024-03-02T05:53:04;99900.47;;;6.73;92.11
66887;BME280;67239;51.680;5.976;2024-03-02T05:55:31;99906.63;;;6.72;92.03
66887;BME280;67239;51.680;5.976;2024-03-02T05:57:58;99901.44;;;6.70;92.35
66887;BME280;67239;51.680;5.976;2024-03-02T06:00:44;99900.66;;;6.66;92.22
66887;BME280;67239;51.680;5.976;2024-03-02T06:03:11;99905.09;;;6.64;92.25
66887;BME280;67239;51.680;5.976;2024-03-02T06:05:38;99910.44;;;6.61;92.39
66887;BME280;67239;51.680;5.976;2024-03-02T06:08:05;99908.03;;;6.53;92.43
66887;BME280;67239;51.680;5.976;2024-03-02T06:10:34;99919.34;;;6.54;92.76
66887;BME280;67239;51.680;5.976;2024-03-02T06:13:03;99922.91;;;6.51;92.93
66887;BME280;67239;51.680;5.976;2024-03-02T06:15:31;99925.66;;;6.47;92.94
66887;BME280;67239;51.680;5.976;2024-03-02T06:18:03;99923.25;;;6.39;92.72
66887;BME280;67239;51.680;5.976;2024-03-02T06:20:30;99935.75;;;6.29;92.72
66887;BME280;67239;51.680;5.976;2024-03-02T06:23:03;99942.13;;;6.19;92.81
66887;BME280;67239;51.680;5.976;2024-03-02T06:25:31;99939.75;;;6.10;93.02
66887;BME280;67239;51.680;5.976;2024-03-02T06:27:58;99934.75;;;6.00;93.16
66887;BME280;67239;51.680;5.976;2024-03-02T06:30:25;99945.38;;;5.93;93.83
66887;BME280;67239;51.680;5.976;2024-03-02T06:32:52;99949.03;;;5.85;93.96
66887;BME280;67239;51.680;5.976;2024-03-02T06:35:22;99948.38;;;5.77;94.26
66887;BME280;67239;51.680;5.976;2024-03-02T06:37:49;99958.94;;;5.72;94.95
66887;BME280;67239;51.680;5.976;2024-03-02T06:40:16;99953.84;;;5.68;95.28
66887;BME280;67239;51.680;5.976;2024-03-02T06:42:46;99954.72;;;5.68;95.70
66887;BME280;67239;51.680;5.976;2024-03-02T06:45:13;99958.22;;;5.67;96.04
66887;BME280;67239;51.680;5.976;2024-03-02T06:47:40;99961.69;;;5.68;95.89
66887;BME280;67239;51.680;5.976;2024-03-02T06:50:08;99961.69;;;5.68;96.07
66887;BME280;67239;51.680;5.976;2024-03-02T06:52:36;99956.44;;;5.68;96.28
66887;BME280;67239;51.680;5.976;2024-03-02T06:55:03;99960.78;;;5.69;96.30
66887;BME280;67239;51.680;5.976;2024-03-02T06:57:31;99974.63;;;5.74;96.42
66887;BME280;67239;51.680;5.976;2024-03-02T06:59:58;99966.69;;;5.77;96.54
66887;BME280;67239;51.680;5.976;2024-03-02T07:02:26;99972.69;;;5.81;96.38
66887;BME280;67239;51.680;5.976;2024-03-02T07:04:54;99977.00;;;5.83;96.36
66887;BME280;67239;51.680;5.976;2024-03-02T07:07:21;99976.97;;;5.85;96.28
66887;BME280;67239;51.680;5.976;2024-03-02T07:09:48;99978.69;;;5.86;96.42
66887;BME280;67239;51.680;5.976;2024-03-02T07:12:15;99978.63;;;5.87;96.77
66887;BME280;67239;51.680;5.976;2024-03-02T07:14:42;99988.09;;;5.93;96.89
66887;BME280;67239;51.680;5.976;2024-03-02T07:17:30;99979.31;;;5.96;97.31
66887;BME280;67239;51.680;5.976;2024-03-02T07:20:02;99975.69;;;6.03;97.53
66887;BME280;67239;51.680;5.976;2024-03-02T07:22:30;99975.53;;;6.09;97.78
66887;BME280;67239;51.680;5.976;2024-03-02T07:24:57;99982.28;;;6.18;97.70
66887;BME280;67239;51.680;5.976;2024-03-02T07:27:27;99979.47;;;6.26;97.31
66887;BME280;67239;51.680;5.976;2024-03-02T07:29:54;99984.41;;;6.36;97.28
66887;BME280;67239;51.680;5.976;2024-03-02T07:32:21;99984.22;;;6.44;97.18
66887;BME280;67239;51.680;5.976;2024-03-02T07:34:48;99988.31;;;6.53;97.10
66887;BME280;67239;51.680;5.976;2024-03-02T07:37:17;99991.66;;;6.60;96.83
66887;BME280;67239;51.680;5.976;2024-03-02T07:39:44;99990.53;;;6.68;96.64
66887;BME280;67239;51.680;5.976;2024-03-02T07:42:12;100005.06;;;6.80;96.33
66887;BME280;67239;51.680;5.976;2024-03-02T07:44:39;100003.06;;;6.89;96.19
66887;BME280;67239;51.680;5.976;2024-03-02T07:47:08;100002.72;;;7.01;96.06
66887;BME280;67239;51.680;5.976;2024-03-02T07:49:35;99997.13;;;7.13;95.77
66887;BME280;67239;51.680;5.976;2024-03-02T07:52:02;99999.47;;;7.23;95.29
66887;BME280;67239;51.680;5.976;2024-03-02T07:54:29;100003.44;;;7.36;95.43
66887;BME280;67239;51.680;5.976;2024-03-02T07:56:57;100001.31;;;7.49;94.92
66887;BME280;67239;51.680;5.976;2024-03-02T07:59:25;100000.03;;;7.63;94.50
66887;BME280;67239;51.680;5.976;2024-03-02T08:01:52;99997.75;;;7.78;93.32
66887;BME280;67239;51.680;5.976;2024-03-02T08:04:22;99996.34;;;7.95;92.27
66887;BME280;67239;51.680;5.976;2024-03-02T08:06:50;99999.34;;;8.11;91.46
66887;BME280;67239;51.680;5.976;2024-03-02T08:09:17;99997.09;;;8.26;91.05
66887;BME280;67239;51.680;5.976;2024-03-02T08:11:44;100002.56;;;8.45;91.49
66887;BME280;67239;51.680;5.976;2024-03-02T08:14:11;100001.75;;;8.69;90.67
66887;BME280;67239;51.680;5.976;2024-03-02T08:16:38;100000.91;;;8.93;89.33
66887;BME280;67239;51.680;5.976;2024-03-02T08:19:05;100007.41;;;9.06;88.07
66887;BME280;67239;51.680;5.976;2024-03-02T08:21:32;100001.94;;;9.12;86.57
66887;BME280;67239;51.680;5.976;2024-03-02T08:24:02;100001.50;;;9.23;86.38
66887;BME280;67239;51.680;5.976;2024-03-02T08:26:29;100001.03;;;9.36;85.24
66887;BME280;67239;51.680;5.976;2024-03-02T08:28:58;99998.78;;;9.48;82.95
66887;BME280;67239;51.680;5.976;2024-03-02T08:31:28;100001.13;;;9.56;81.13
66887;BME280;67239;51.680;5.976;2024-03-02T08:33:55;100000.94;;;9.61;81.98
66887;BME280;67239;51.680;5.976;2024-03-02T08:36:23;100002.22;;;9.73;82.16
66887;BME280;67239;51.680;5.976;2024-03-02T08:38:50;100007.88;;;9.86;81.24
66887;BME280;67239;51.680;5.976;2024-03-02T08:41:18;100011.88;;;9.94;79.51
66887;BME280;67239;51.680;5.976;2024-03-02T08:43:45;100014.31;;;9.99;80.29
66887;BME280;67239;51.680;5.976;2024-03-02T08:46:13;100016.66;;;10.07;80.23
66887;BME280;67239;51.680;5.976;2024-03-02T08:48:40;100005.91;;;10.12;79.09
66887;BME280;67239;51.680;5.976;2024-03-02T08:51:07;100013.75;;;10.13;78.50
66887;BME280;67239;51.680;5.976;2024-03-02T08:53:36;100017.25;;;10.14;78.98
66887;BME280;67239;51.680;5.976;2024-03-02T08:56:04;100016.25;;;10.16;79.94
66887;BME280;67239;51.680;5.976;2024-03-02T08:58:32;100013.31;;;10.24;79.54
66887;BME280;67239;51.680;5.976;2024-03-02T09:00:59;100005.09;;;10.32;79.39
66887;BME280;67239;51.680;5.976;2024-03-02T09:03:27;99999.69;;;10.35;78.47
66887;BME280;67239;51.680;5.976;2024-03-02T09:05:54;100008.34;;;10.38;78.62
66887;BME280;67239;51.680;5.976;2024-03-02T09:08:21;100014.41;;;10.40;79.25
66887;BME280;67239;51.680;5.976;2024-03-02T09:10:48;100012.56;;;10.43;78.49
66887;BME280;67239;51.680;5.976;2024-03-02T09:13:15;100022.06;;;10.47;78.84
66887;BME280;67239;51.680;5.976;2024-03-02T09:15:43;100007.88;;;10.49;78.09
66887;BME280;67239;51.680;5.976;2024-03-02T09:18:11;100010.31;;;10.54;77.90
66887;BME280;67239;51.680;5.976;2024-03-02T09:20:40;100016.19;;;10.61;77.42
66887;BME280;67239;51.680;5.976;2024-03-02T09:23:08;100017.91;;;10.62;76.00
66887;BME280;67239;51.680;5.976;2024-03-02T09:25:35;100019.63;;;10.63;75.95
66887;BME280;67239;51.680;5.976;2024-03-02T09:28:03;100023.91;;;10.65;76.49
66887;BME280;67239;51.680;5.976;2024-03-02T09:30:31;100021.09;;;10.68;75.48
66887;BME280;67239;51.680;5.976;2024-03-02T09:32:58;100025.25;;;10.74;75.46
66887;BME280;67239;51.680;5.976;2024-03-02T09:35:28;100030.28;;;10.80;75.16
66887;BME280;67239;51.680;5.976;2024-03-02T09:37:55;100022.25;;;10.83;75.68
66887;BME280;67239;51.680;5.976;2024-03-02T09:40:22;100028.03;;;10.92;75.42
66887;BME280;67239;51.680;5.976;2024-03-02T09:42:50;100026.94;;;10.96;74.66
66887;BME280;67239;51.680;5.976;2024-03-02T09:45:23;100022.75;;;10.92;73.53
66887;BME280;67239;51.680;5.976;2024-03-02T09:47:51;100021.38;;;10.83;74.22
66887;BME280;67239;51.680;5.976;2024-03-02T09:50:18;100018.84;;;10.80;74.71
66887;BME280;67239;51.680;5.976;2024-03-02T09:52:49;100026.75;;;10.80;74.60
66887;BME280;67239;51.680;5.976;2024-03-02T09:55:18;100021.50;;;10.80;72.63
66887;BME280;67239;51.680;5.976;2024-03-02T09:57:46;100017.09;;;10.80;71.33
66887;BME280;67239;51.680;5.976;2024-03-02T10:00:15;100018.84;;;10.80;71.22
66887;BME280;67239;51.680;5.976;2024-03-02T10:02:43;100018.94;;;10.78;71.60
66887;BME280;67239;51.680;5.976;2024-03-02T10:05:10;100016.09;;;10.83;71.81
66887;BME280;67239;51.680;5.976;2024-03-02T10:07:38;100024.72;;;10.86;71.91
66887;BME280;67239;51.680;5.976;2024-03-02T10:10:15;100019.22;;;10.91;72.29
66887;BME280;67239;51.680;5.976;2024-03-02T10:12:43;100021.63;;;10.97;71.12
66887;BME280;67239;51.680;5.976;2024-03-02T10:15:10;100019.69;;;11.01;71.38
66887;BME280;67239;51.680;5.976;2024-03-02T10:17:37;100022.25;;;11.02;70.93
66887;BME280;67239;51.680;5.976;2024-03-02T10:20:21;100022.25;;;11.02;70.56
66887;BME280;67239;51.680;5.976;2024-03-02T10:22:52;100020.31;;;11.06;69.67
66887;BME280;67239;51.680;5.976;2024-03-02T10:25:32;100012.28;;;11.09;69.82
66887;BME280;67239;51.680;5.976;2024-03-02T10:28:03;100006.88;;;11.12;70.13
66887;BME280;67239;51.680;5.976;2024-03-02T10:30:36;100008.28;;;11.19;69.80
66887;BME280;67239;51.680;5.976;2024-03-02T10:33:05;100004.53;;;11.25;70.09
66887;BME280;67239;51.680;5.976;2024-03-02T10:35:33;100003.25;;;11.34;69.44
66887;BME280;67239;51.680;5.976;2024-03-02T10:38:06;100002.94;;;11.40;69.35
66887;BME280;67239;51.680;5.976;2024-03-02T10:40:33;99995.66;;;11.45;68.11
66887;BME280;67239;51.680;5.976;2024-03-02T10:43:01;99986.59;;;11.51;67.69
66887;BME280;67239;51.680;5.976;2024-03-02T10:45:32;99984.69;;;11.55;68.52
66887;BME280;67239;51.680;5.976;2024-03-02T10:48:01;99978.16;;;11.62;67.58
66887;BME280;67239;51.680;5.976;2024-03-02T10:50:30;99980.50;;;11.68;67.96
66887;BME280;67239;51.680;5.976;2024-03-02T10:52:57;99985.41;;;11.76;68.11
66887;BME280;67239;51.680;5.976;2024-03-02T10:55:24;99983.34;;;11.83;66.49
66887;BME280;67239;51.680;5.976;2024-03-02T10:57:53;99986.59;;;11.88;65.10
66887;BME280;67239;51.680;5.976;2024-03-02T11:00:25;99986.34;;;11.92;63.84
66887;BME280;67239;51.680;5.976;2024-03-02T11:03:04;99973.00;;;11.95;64.07
66887;BME280;67239;51.680;5.976;2024-03-02T11:05:43;99971.09;;;11.99;63.42
66887;BME280;67239;51.680;5.976;2024-03-02T11:08:13;99977.03;;;12.04;62.64
66887;BME280;67239;51.680;5.976;2024-03-02T11:11:06;99973.91;;;12.14;63.20
66887;BME280;67239;51.680;5.976;2024-03-02T11:13:49;99967.47;;;12.19;63.14
66887;BME280;67239;51.680;5.976;2024-03-02T11:16:43;99964.34;;;12.29;62.96
66887;BME280;67239;51.680;5.976;2024-03-02T11:19:13;99964.81;;;12.37;63.78
66887;BME280;67239;51.680;5.976;2024-03-02T11:21:44;99963.38;;;12.47;63.83
66887;BME280;67239;51.680;5.976;2024-03-02T11:26:51;99967.00;;;12.62;61.59
66887;BME280;67239;51.680;5.976;2024-03-02T11:32:08;99970.72;;;12.76;61.87
66887;BME280;67239;51.680;5.976;2024-03-02T11:34:43;99964.16;;;12.83;61.71
66887;BME280;67239;51.680;5.976;2024-03-02T11:37:13;99969.06;;;12.91;61.44
66887;BME280;67239;51.680;5.976;2024-03-02T11:39:43;99960.34;;;13.04;60.09
66887;BME280;67239;51.680;5.976;2024-03-02T11:42:13;99955.41;;;13.14;59.14
66887;BME280;67239;51.680;5.976;2024-03-02T11:44:43;99962.75;;;13.25;57.96
66887;BME280;67239;51.680;5.976;2024-03-02T11:47:14;99963.53;;;13.27;57.91
66887;BME280;67239;51.680;5.976;2024-03-02T11:49:45;99950.22;;;13.29;57.91
66887;BME280;67239;51.680;5.976;2024-03-02T11:52:16;99948.34;;;13.31;58.48
66887;BME280;67239;51.680;5.976;2024-03-02T11:54:45;99943.63;;;13.36;57.83
66887;BME280;67239;51.680;5.976;2024-03-02T11:57:23;99942.56;;;13.40;58.04
66887;BME280;67239;51.680;5.976;2024-03-02T11:59:50;99941.69;;;13.40;58.12
66887;BME280;67239;51.680;5.976;2024-03-02T12:02:21;99937.84;;;13.45;57.54
66887;BME280;67239;51.680;5.976;2024-03-02T12:04:49;99935.69;;;13.52;56.81
66887;BME280;67239;51.680;5.976;2024-03-02T12:07:23;99928.16;;;13.60;56.90
66887;BME280;67239;51.680;5.976;2024-03-02T12:10:00;99937.47;;;13.68;57.06
66887;BME280;67239;51.680;5.976;2024-03-02T12:12:29;99934.31;;;13.77;56.61
66887;BME280;67239;51.680;5.976;2024-03-02T12:14:56;99922.22;;;13.87;55.74
66887;BME280;67239;51.680;5.976;2024-03-02T12:17:23;99924.31;;;13.96;55.94
66887;BME280;67239;51.680;5.976;2024-03-02T12:19:50;99919.25;;;14.08;56.65
66887;BME280;67239;51.680;5.976;2024-03-02T12:22:17;99910.53;;;14.20;56.52
66887;BME280;67239;51.680;5.976;2024-03-02T12:24:44;99913.41;;;14.32;56.48
66887;BME280;67239;51.680;5.976;2024-03-02T12:27:14;99908.47;;;14.40;56.25
66887;BME280;67239;51.680;5.976;2024-03-02T12:29:42;99905.47;;;14.46;54.43
66887;BME280;67239;51.680;5.976;2024-03-02T12:32:10;99914.66;;;14.55;54.53
66887;BME280;67239;51.680;5.976;2024-03-02T12:34:38;99906.41;;;14.59;54.85
66887;BME280;67239;51.680;5.976;2024-03-02T12:37:21;99901.47;;;14.53;53.77
66887;BME280;67239;51.680;5.976;2024-03-02T12:39:56;99911.13;;;14.40;52.56
66887;BME280;67239;51.680;5.976;2024-03-02T12:42:26;99894.63;;;14.20;50.93
66887;BME280;67239;51.680;5.976;2024-03-02T12:44:53;99891.38;;;14.01;52.35
66887;BME280;67239;51.680;5.976;2024-03-02T12:47:22;99893.31;;;13.98;52.77
66887;BME280;67239;51.680;5.976;2024-03-02T12:49:49;99891.22;;;14.04;53.78
66887;BME280;67239;51.680;5.976;2024-03-02T12:52:19;99889.81;;;14.27;53.19
66887;BME280;67239;51.680;5.976;2024-03-02T12:54:48;99881.31;;;14.51;53.05
66887;BME280;67239;51.680;5.976;2024-03-02T12:57:17;99880.44;;;14.65;53.04
66887;BME280;67239;51.680;5.976;2024-03-02T12:59:45;99881.88;;;14.85;52.44
66887;BME280;67239;51.680;5.976;2024-03-02T13:02:17;99872.41;;;14.95;52.34
66887;BME280;67239;51.680;5.976;2024-03-02T13:04:52;99867.22;;;15.06;51.20
66887;BME280;67239;51.680;5.976;2024-03-02T13:07:26;99865.78;;;15.15;51.70
66887;BME280;67239;51.680;5.976;2024-03-02T13:09:55;99872.50;;;15.21;50.75
66887;BME280;67239;51.680;5.976;2024-03-02T13:12:24;99864.19;;;15.13;50.59
66887;BME280;67239;51.680;5.976;2024-03-02T13:14:52;99854.06;;;15.05;50.66
66887;BME280;67239;51.680;5.976;2024-03-02T13:17:20;99864.78;;;15.03;50.13
66887;BME280;67239;51.680;5.976;2024-03-02T13:22:20;99859.56;;;15.02;49.57
66887;BME280;67239;51.680;5.976;2024-03-02T13:24:48;99861.25;;;15.03;50.11